Grafton Airport
YGFN : now visible

Airfield :











YOU CAN JOIN US ON...

 
LOGIN :

Register | Disclaimer

   EN    FR    IT 

 









Legend :    VFR   Marginal VFR   IFR   Intensive IFR   Very Intensive IFR
Visi :
Ceiling :
>= 8 km
>= 3000ft
5 to 8 km
1000 to 3000 ft
1500m to 5 km
500 to 1000 ft
800 to 1500m
200 to 500 ft
< 800m
< 200 ft
Symbols :   Thunderstorms  Fog  Heavy snow  Heavy precipitations  Wind > 20 kt






- Airport Elevation : 110 ft
- IATA code : GFN


YGFN - Grafton

CURRENT METAR :
  • 101300Z AUTO 02001KT 0800 // OVC002 18/18 Q1014

EXPIRED METARs :
  • 101254Z AUTO 00000KT 4200 // OVC002 17/17 Q1014
  • 101230Z AUTO 00000KT 1500 // BKN003 17/17 Q1014
  • 101220Z AUTO 02002KT 1600 // BKN003 17/17 Q1014
  • 101202Z AUTO 06001KT 9999 // SCT001 17/17 Q1014
  • 101100Z AUTO 00000KT 9999 // BKN105 OVC125 18/17 Q1015

TAF N/A



MET'MAP, your aeronautical weather chart ! - Copyright ORBIFLY December 2007 - Disclaimer

ORBIFLY MET'MAP TEAM :

Programming & Development : Alexandra Zaïnal
Concept & original design : Baudouin d'Aumeries
Assistance for programming : Marc-Olivier Méhu
Technical & hardware support : Manuel Goepfert

Contact : metmap@orbifly.com




SOURCES & CREDITS :

   NOAA       Earth
Advisory